Terminal Aerodrome Forecast
Issued by NWS Sterling, VA

Current Version | Previous Version | Graphics & Text | Print | Product List | Glossary On
Versions: 1 2 3 4 5 6 7 8 9 10 11 12 13 14
217
FTUS41 KLWX 201741 RRA
TAFMRB
TAF
KMRB 201741Z 2018/2118 36005KT P6SM FEW050
     FM210100 VRB03KT P6SM FEW200
     FM211400 VRB03KT P6SM FEW050=

USA.gov is the U.S. government's official web portal to all federal, state and local government web resources and services.